Aviation Digital Data Service (ADDS)

Output produced by METARs form (0843 UTC 10 February 2016)
found at http://aviationweather.gov/adds/metars/
 
KGFL 100749Z 1008/1106 00000KT 1 1/2SM -SN BR BKN035 OVC060 
     TEMPO 1008/1010 3SM -SN BR 
     FM101000 00000KT P6SM VCSH BKN035 OVC060 
     TEMPO 1010/1014 5SM -SHSN BR 
     FM101400 21003KT P6SM VCSH OVC035 
     FM102200 24005KT P6SM BKN035 OVC080